createdAt,value
2023-05-03T00:01:41.344Z,14.25
2023-05-03T00:04:08.792Z,14.23
2023-05-03T00:06:35.516Z,14.25
2023-05-03T00:09:02.553Z,14.20
2023-05-03T00:11:29.107Z,14.17
2023-05-03T00:13:55.706Z,14.16
2023-05-03T00:16:22.296Z,14.07
2023-05-03T00:18:49.457Z,14.02
2023-05-03T00:21:16.974Z,14.01
2023-05-03T00:23:43.624Z,14.03
2023-05-03T00:26:10.305Z,14.05
2023-05-03T00:28:36.871Z,14.08
2023-05-03T00:31:10.461Z,14.08
2023-05-03T00:33:38.491Z,14.08
2023-05-03T00:36:22.911Z,14.07
2023-05-03T00:38:49.472Z,14.02
2023-05-03T00:41:16.673Z,14.00
2023-05-03T00:43:43.244Z,13.99
2023-05-03T00:46:16.703Z,13.96
2023-05-03T00:48:49.225Z,13.92
2023-05-03T00:51:16.333Z,13.89
2023-05-03T00:53:43.629Z,13.86
2023-05-03T00:56:12.005Z,13.85
2023-05-03T00:58:40.530Z,13.81
2023-05-03T01:01:07.847Z,13.83
2023-05-03T01:03:37.797Z,13.73
2023-05-03T01:06:32.618Z,13.75
2023-05-03T01:09:43.660Z,13.74
2023-05-03T01:12:36.416Z,13.75
2023-05-03T01:15:17.503Z,13.73
2023-05-03T01:17:54.533Z,13.72
2023-05-03T01:20:26.942Z,13.74
2023-05-03T01:23:05.390Z,13.76
2023-05-03T01:25:33.410Z,13.74
2023-05-03T01:27:59.967Z,13.74
2023-05-03T01:30:28.863Z,13.74
2023-05-03T01:33:16.885Z,13.76
2023-05-03T01:36:05.016Z,13.74
2023-05-03T01:38:36.586Z,13.75
2023-05-03T01:41:07.066Z,13.75
2023-05-03T01:43:34.825Z,13.76
2023-05-03T01:46:01.411Z,13.75
2023-05-03T01:48:28.033Z,13.68
2023-05-03T01:50:54.737Z,13.64
2023-05-03T01:53:21.430Z,13.63
2023-05-03T01:55:47.995Z,13.64
2023-05-03T01:58:14.526Z,13.65
2023-05-03T02:00:41.186Z,13.64
2023-05-03T02:03:07.987Z,13.65
2023-05-03T02:05:35.525Z,13.64
2023-05-03T02:08:02.131Z,13.64
2023-05-03T02:10:28.806Z,13.61
2023-05-03T02:12:55.412Z,13.60
2023-05-03T02:15:21.990Z,13.57
2023-05-03T02:17:49.657Z,13.60
2023-05-03T02:20:16.615Z,13.60
2023-05-03T02:22:43.303Z,13.59
2023-05-03T02:25:09.864Z,13.60
2023-05-03T02:27:36.560Z,13.62
2023-05-03T02:30:04.264Z,13.63
2023-05-03T02:32:31.441Z,13.62
2023-05-03T02:34:58.096Z,13.61
2023-05-03T02:37:24.657Z,13.61
2023-05-03T02:39:51.398Z,13.60
2023-05-03T02:42:18.137Z,13.58
2023-05-03T02:44:46.425Z,13.56
2023-05-03T02:47:13.144Z,13.55
2023-05-03T02:49:39.679Z,13.56
2023-05-03T02:52:06.384Z,13.57
2023-05-03T02:54:33.031Z,13.53
2023-05-03T02:56:59.614Z,13.53
2023-05-03T02:59:26.286Z,13.53
2023-05-03T03:01:52.879Z,13.51
2023-05-03T03:04:19.704Z,13.50
2023-05-03T03:06:46.735Z,13.49
2023-05-03T03:09:13.416Z,13.51
2023-05-03T03:11:40.083Z,13.49
2023-05-03T03:14:06.692Z,13.47
2023-05-03T03:16:33.311Z,13.50
2023-05-03T03:18:59.901Z,13.50
2023-05-03T03:21:26.750Z,13.49
2023-05-03T03:23:53.275Z,13.51
2023-05-03T03:26:19.888Z,13.48
2023-05-03T03:28:46.435Z,13.51
2023-05-03T03:31:13.313Z,13.53
2023-05-03T03:33:39.941Z,13.54
2023-05-03T03:36:07.937Z,13.56
2023-05-03T03:38:34.509Z,13.55
2023-05-03T03:41:01.469Z,13.52
2023-05-03T03:43:28.223Z,13.50
2023-05-03T03:45:54.793Z,13.47
2023-05-03T03:48:21.351Z,13.46
2023-05-03T03:50:47.962Z,13.46
2023-05-03T03:53:14.621Z,13.46
2023-05-03T03:55:41.288Z,13.48
2023-05-03T03:58:07.896Z,13.48
2023-05-03T04:00:35.933Z,13.41
2023-05-03T04:03:03.144Z,13.40
2023-05-03T04:05:31.545Z,13.39
2023-05-03T04:07:58.398Z,13.41
2023-05-03T04:10:24.997Z,13.42
2023-05-03T04:12:51.743Z,13.43
2023-05-03T04:15:18.473Z,13.43
2023-05-03T04:17:45.032Z,13.41
2023-05-03T04:20:13.970Z,13.40
2023-05-03T04:22:40.806Z,13.43
2023-05-03T04:25:10.960Z,13.42
2023-05-03T04:27:38.308Z,13.47
2023-05-03T04:30:06.532Z,13.52
2023-05-03T04:32:37.402Z,13.53
2023-05-03T04:35:09.497Z,13.51
2023-05-03T04:37:40.551Z,13.53
2023-05-03T04:40:09.560Z,13.55
2023-05-03T04:42:36.374Z,13.58
2023-05-03T04:45:03.887Z,13.55
2023-05-03T04:47:31.085Z,13.56
2023-05-03T04:49:57.706Z,13.61
2023-05-03T04:52:25.501Z,13.67
2023-05-03T04:54:52.486Z,13.71
2023-05-03T04:57:19.062Z,13.74
2023-05-03T04:59:46.084Z,13.76
2023-05-03T05:02:12.664Z,13.76
2023-05-03T05:04:39.275Z,13.79
2023-05-03T05:07:05.935Z,13.83
2023-05-03T05:09:32.495Z,13.87
2023-05-03T05:11:59.199Z,13.89
2023-05-03T05:14:28.332Z,13.89
2023-05-03T05:16:54.980Z,13.97
2023-05-03T05:19:21.616Z,14.01
2023-05-03T05:21:48.272Z,14.05
2023-05-03T05:24:14.936Z,14.14
2023-05-03T05:26:43.198Z,14.18
2023-05-03T05:29:10.052Z,14.26
2023-05-03T05:31:36.786Z,14.34
2023-05-03T05:34:03.757Z,14.41
2023-05-03T05:36:33.406Z,14.45
2023-05-03T05:39:00.157Z,14.52
2023-05-03T05:41:27.252Z,14.54
2023-05-03T05:43:53.936Z,14.56
2023-05-03T05:46:23.605Z,14.58
2023-05-03T05:48:51.385Z,14.58
2023-05-03T05:51:18.419Z,14.63
2023-05-03T05:53:45.100Z,14.72
2023-05-03T05:56:11.843Z,14.79
2023-05-03T05:58:38.859Z,14.80
2023-05-03T06:01:05.629Z,14.81
2023-05-03T06:03:33.993Z,14.82
2023-05-03T06:06:01.003Z,14.86
2023-05-03T06:08:27.737Z,14.90
2023-05-03T06:10:54.367Z,14.97
2023-05-03T06:13:21.626Z,15.08
2023-05-03T06:15:48.212Z,15.09
2023-05-03T06:18:14.852Z,15.12
2023-05-03T06:20:42.071Z,15.17
2023-05-03T06:23:08.840Z,15.22
2023-05-03T06:25:36.485Z,15.24
2023-05-03T06:28:03.233Z,15.27
2023-05-03T06:30:30.208Z,15.37
2023-05-03T06:32:56.885Z,15.57
2023-05-03T06:35:23.789Z,15.67
2023-05-03T06:37:50.360Z,15.71
2023-05-03T06:40:16.949Z,15.86
2023-05-03T06:42:43.539Z,15.89
2023-05-03T06:45:10.585Z,15.95
2023-05-03T06:47:37.377Z,16.06
2023-05-03T06:50:04.822Z,16.19
2023-05-03T06:52:31.703Z,16.35
2023-05-03T06:54:58.290Z,16.47
2023-05-03T06:57:26.985Z,16.57
2023-05-03T06:59:54.799Z,16.65
2023-05-03T07:02:21.772Z,16.77
2023-05-03T07:04:48.356Z,16.85
2023-05-03T07:07:15.930Z,16.94
2023-05-03T07:09:43.855Z,17.04
2023-05-03T07:12:11.536Z,17.14
2023-05-03T07:14:39.766Z,17.21
2023-05-03T07:17:06.452Z,17.24
2023-05-03T07:19:33.222Z,17.23
2023-05-03T07:21:59.877Z,17.23
2023-05-03T07:24:26.450Z,17.19
2023-05-03T07:26:53.791Z,17.35
2023-05-03T07:29:20.832Z,17.37
2023-05-03T07:31:47.866Z,17.41
2023-05-03T07:34:14.509Z,17.55
2023-05-03T07:36:41.369Z,17.64
2023-05-03T07:39:08.590Z,17.71
2023-05-03T07:41:35.395Z,17.75
2023-05-03T07:44:02.003Z,17.70
2023-05-03T07:46:28.580Z,17.79
2023-05-03T07:48:55.131Z,17.90
2023-05-03T07:51:21.646Z,17.93
2023-05-03T07:53:48.213Z,18.04
2023-05-03T07:56:14.816Z,18.21
2023-05-03T07:58:42.619Z,18.37
2023-05-03T08:01:10.682Z,18.50
2023-05-03T08:03:37.564Z,18.64
2023-05-03T08:06:04.660Z,18.68
2023-05-03T08:08:32.264Z,18.71
2023-05-03T08:10:58.844Z,18.83
2023-05-03T08:13:25.489Z,18.92
2023-05-03T08:15:52.541Z,19.03
2023-05-03T08:18:20.970Z,19.17
2023-05-03T08:20:49.217Z,19.29
2023-05-03T08:23:19.238Z,19.36
2023-05-03T08:25:46.020Z,19.39
2023-05-03T08:28:12.794Z,19.26
2023-05-03T08:30:41.099Z,19.40
2023-05-03T08:33:09.962Z,19.38
2023-05-03T08:35:36.821Z,19.40
2023-05-03T08:38:05.082Z,19.47
2023-05-03T08:40:37.182Z,19.61
2023-05-03T08:43:10.322Z,19.75
2023-05-03T08:45:37.222Z,19.84
2023-05-03T08:48:04.738Z,19.97
2023-05-03T08:50:32.789Z,20.05
2023-05-03T08:53:00.210Z,20.14
2023-05-03T08:55:27.407Z,20.15
2023-05-03T08:57:54.057Z,20.19
2023-05-03T09:00:29.045Z,20.14
2023-05-03T09:02:56.226Z,20.17
2023-05-03T09:05:23.122Z,20.32
2023-05-03T09:08:10.454Z,20.50
2023-05-03T09:10:39.825Z,20.65
2023-05-03T09:13:07.789Z,20.82
2023-05-03T09:15:35.489Z,20.97
2023-05-03T09:18:15.526Z,20.92
2023-05-03T09:20:45.783Z,21.06
2023-05-03T09:23:12.606Z,21.18
2023-05-03T09:25:42.769Z,21.26
2023-05-03T09:28:09.344Z,21.15
2023-05-03T09:30:37.041Z,21.23
2023-05-03T09:33:04.602Z,21.33
2023-05-03T09:35:32.688Z,21.45
2023-05-03T09:38:00.128Z,21.52
2023-05-03T09:40:29.959Z,21.58
2023-05-03T09:43:19.359Z,21.60
2023-05-03T09:45:46.325Z,21.53
2023-05-03T09:48:13.820Z,21.47
2023-05-03T09:50:42.751Z,21.54
2023-05-03T09:53:10.355Z,21.61
2023-05-03T09:55:40.734Z,21.59
2023-05-03T09:58:08.023Z,21.67
2023-05-03T10:00:37.573Z,21.66
2023-05-03T10:03:09.174Z,21.70
2023-05-03T10:05:46.140Z,21.69
2023-05-03T10:08:33.790Z,21.65
2023-05-03T10:11:03.799Z,21.54
2023-05-03T10:13:31.988Z,21.45
2023-05-03T10:16:11.511Z,21.44
2023-05-03T10:18:46.872Z,21.43
2023-05-03T10:21:21.724Z,21.51
2023-05-03T10:24:13.811Z,21.47
2023-05-03T10:26:41.928Z,21.55
2023-05-03T10:29:33.400Z,21.37
2023-05-03T10:32:21.547Z,21.37
2023-05-03T10:34:48.176Z,21.46
2023-05-03T10:37:15.939Z,21.46
2023-05-03T10:39:46.667Z,21.42
2023-05-03T10:42:13.275Z,21.34
2023-05-03T10:44:55.064Z,21.23
2023-05-03T10:47:24.964Z,21.14
2023-05-03T10:50:16.622Z,21.07
2023-05-03T10:52:43.216Z,21.04
2023-05-03T10:55:21.452Z,21.09
2023-05-03T10:57:49.209Z,21.01
2023-05-03T11:00:34.031Z,20.81
2023-05-03T11:03:18.668Z,20.76
2023-05-03T11:05:48.133Z,20.76
2023-05-03T11:08:30.085Z,20.75
2023-05-03T11:11:02.621Z,20.72
2023-05-03T11:13:29.360Z,20.62
2023-05-03T11:15:56.447Z,20.41
2023-05-03T11:18:26.127Z,20.33
2023-05-03T11:20:54.139Z,20.23
2023-05-03T11:23:28.183Z,20.23
2023-05-03T11:25:55.083Z,20.09
2023-05-03T11:28:21.933Z,20.07
2023-05-03T11:30:48.587Z,20.15
2023-05-03T11:33:15.510Z,20.12
2023-05-03T11:35:42.838Z,20.15
2023-05-03T11:38:10.275Z,20.14
2023-05-03T11:40:39.196Z,20.19
2023-05-03T11:43:09.490Z,20.20
2023-05-03T11:45:47.044Z,20.22
2023-05-03T11:48:14.395Z,20.19
2023-05-03T11:51:09.436Z,20.22
2023-05-03T11:53:36.802Z,20.21
2023-05-03T11:56:03.450Z,20.32
2023-05-03T11:58:30.024Z,20.35
2023-05-03T12:00:57.384Z,20.37
2023-05-03T12:03:33.410Z,20.34
2023-05-03T12:06:02.261Z,20.27
2023-05-03T12:08:34.486Z,20.30
2023-05-03T12:11:03.827Z,20.29
2023-05-03T12:13:39.351Z,20.27
2023-05-03T12:18:55.911Z,20.05
2023-05-03T12:23:56.476Z,20.00
2023-05-03T12:26:25.573Z,19.90
2023-05-03T12:28:56.006Z,19.89
2023-05-03T12:31:23.837Z,19.97
2023-05-03T12:34:11.731Z,19.94
2023-05-03T12:36:38.427Z,19.93
2023-05-03T12:39:09.802Z,19.95
2023-05-03T12:44:09.887Z,20.08
2023-05-03T12:46:38.569Z,20.13
2023-05-03T12:49:07.934Z,20.14
2023-05-03T12:51:35.800Z,20.10
2023-05-03T12:54:03.895Z,20.17
2023-05-03T12:56:33.285Z,20.17
2023-05-03T13:04:26.504Z,20.09
2023-05-03T13:06:46.943Z,20.15
2023-05-03T13:09:20.609Z,20.17
2023-05-03T13:11:50.093Z,20.14
2023-05-03T13:14:17.074Z,20.09
2023-05-03T13:16:45.655Z,20.16
2023-05-03T13:19:13.571Z,20.16
2023-05-03T13:21:42.462Z,20.18
2023-05-03T13:24:09.407Z,20.23
2023-05-03T13:26:36.189Z,20.24
2023-05-03T13:29:02.828Z,20.28
2023-05-03T13:31:30.313Z,20.21
2023-05-03T13:33:57.328Z,20.15
2023-05-03T13:36:24.295Z,20.18
2023-05-03T13:38:51.804Z,20.30
2023-05-03T13:41:19.326Z,20.38
2023-05-03T13:43:46.273Z,20.41
2023-05-03T13:46:12.945Z,20.48
2023-05-03T13:48:40.362Z,20.54
2023-05-03T13:51:09.270Z,20.67
2023-05-03T13:53:35.899Z,20.79
2023-05-03T13:56:03.253Z,20.85
2023-05-03T13:58:29.882Z,20.87
2023-05-03T14:00:56.421Z,21.01
2023-05-03T14:03:23.337Z,21.23
2023-05-03T14:05:50.057Z,21.35
2023-05-03T14:08:16.970Z,21.53
2023-05-03T14:10:44.147Z,21.67
2023-05-03T14:13:11.401Z,21.82
2023-05-03T14:15:45.811Z,22.04
2023-05-03T14:18:12.507Z,22.09
2023-05-03T14:20:39.249Z,22.20
2023-05-03T14:23:06.120Z,22.24
2023-05-03T14:25:32.661Z,22.33
2023-05-03T14:27:59.756Z,22.50
2023-05-03T14:30:26.309Z,22.58
2023-05-03T14:32:52.929Z,22.53
2023-05-03T14:35:20.138Z,22.55
2023-05-03T14:37:47.390Z,22.56
2023-05-03T14:40:14.471Z,22.58
2023-05-03T14:42:41.191Z,22.36
2023-05-03T14:45:10.907Z,22.21
2023-05-03T14:47:39.384Z,21.93
2023-05-03T14:50:06.588Z,21.71
2023-05-03T14:52:33.512Z,21.51
2023-05-03T14:55:00.045Z,21.39
2023-05-03T14:57:26.814Z,21.27
2023-05-03T14:59:53.376Z,21.05
2023-05-03T15:02:20.177Z,20.91
2023-05-03T15:04:47.045Z,20.89
2023-05-03T15:07:13.632Z,20.83
2023-05-03T15:09:40.221Z,20.83
2023-05-03T15:12:07.457Z,20.68
2023-05-03T15:14:34.014Z,20.70
2023-05-03T15:17:00.890Z,20.74
2023-05-03T15:19:28.510Z,21.97
2023-05-03T15:21:55.346Z,21.98
2023-05-03T15:24:22.280Z,22.26
2023-05-03T15:26:48.889Z,21.96
2023-05-03T15:29:16.276Z,21.74
2023-05-03T15:31:43.719Z,21.61
2023-05-03T15:34:13.197Z,21.07
2023-05-03T15:36:40.789Z,20.85
2023-05-03T15:39:09.135Z,20.78
2023-05-03T15:41:35.885Z,20.82
2023-05-03T15:44:05.214Z,20.77
2023-05-03T15:46:32.755Z,20.71
2023-05-03T15:48:59.492Z,20.50
2023-05-03T15:51:27.842Z,20.42
2023-05-03T15:53:54.455Z,20.33
2023-05-03T15:56:21.774Z,20.24
2023-05-03T15:58:50.072Z,20.26
2023-05-03T16:01:17.233Z,20.03
2023-05-03T16:03:44.503Z,19.99
2023-05-03T16:06:11.459Z,20.03
2023-05-03T16:08:38.142Z,20.03
2023-05-03T16:11:04.976Z,19.92
2023-05-03T16:13:31.558Z,19.83
2023-05-03T16:15:58.141Z,19.83
2023-05-03T16:18:26.856Z,19.80
2023-05-03T16:20:54.186Z,19.63
2023-05-03T16:23:20.903Z,19.45
2023-05-03T16:25:47.586Z,19.46
2023-05-03T16:28:15.038Z,19.42
2023-05-03T16:30:42.466Z,19.26
2023-05-03T16:33:09.256Z,19.29
2023-05-03T16:35:35.893Z,19.18
2023-05-03T16:38:02.955Z,19.17
2023-05-03T16:40:29.987Z,19.17
2023-05-03T16:42:58.129Z,19.09
2023-05-03T16:45:25.036Z,18.96
2023-05-03T16:47:52.110Z,18.92
2023-05-03T16:50:18.739Z,18.90
2023-05-03T16:52:45.308Z,18.82
2023-05-03T16:55:13.332Z,18.83
2023-05-03T16:57:40.172Z,18.74
2023-05-03T17:00:09.353Z,18.70
2023-05-03T17:02:39.891Z,18.56
2023-05-03T17:05:12.655Z,18.43
2023-05-03T17:07:41.886Z,18.23
2023-05-03T17:10:09.154Z,18.14
2023-05-03T17:12:35.853Z,18.07
2023-05-03T17:15:02.568Z,17.95
2023-05-03T17:17:32.022Z,17.88
2023-05-03T17:19:58.674Z,17.88
2023-05-03T17:22:25.372Z,17.88
2023-05-03T17:24:55.284Z,17.71
2023-05-03T17:27:22.093Z,17.68
2023-05-03T17:29:48.643Z,17.50
2023-05-03T17:32:15.324Z,17.41
2023-05-03T17:34:41.935Z,17.39
2023-05-03T17:37:08.706Z,17.34
2023-05-03T17:39:35.291Z,17.18
2023-05-03T17:42:01.858Z,17.14
2023-05-03T17:44:28.408Z,17.07
2023-05-03T17:46:56.048Z,17.02
2023-05-03T17:49:22.616Z,16.84
2023-05-03T17:51:49.322Z,16.70
2023-05-03T17:54:15.902Z,16.63
2023-05-03T17:56:44.510Z,16.58
2023-05-03T17:59:11.136Z,16.47
2023-05-03T18:01:37.763Z,16.37
2023-05-03T18:04:04.591Z,16.25
2023-05-03T18:06:31.306Z,16.14
2023-05-03T18:08:58.524Z,16.18
2023-05-03T18:11:25.094Z,16.15
2023-05-03T18:13:51.664Z,16.06
2023-05-03T18:16:18.670Z,16.04
2023-05-03T18:18:45.252Z,16.02
2023-05-03T18:21:12.496Z,15.94
2023-05-03T18:23:39.213Z,15.81
2023-05-03T18:26:07.690Z,15.74
2023-05-03T18:28:35.146Z,15.69
2023-05-03T18:31:01.801Z,15.69
2023-05-03T18:33:28.394Z,15.63
2023-05-03T18:35:54.978Z,15.56
2023-05-03T18:38:21.878Z,15.56
2023-05-03T18:40:49.947Z,15.53
2023-05-03T18:43:16.843Z,15.47
2023-05-03T18:45:43.536Z,15.47
2023-05-03T18:48:10.197Z,15.40
2023-05-03T18:50:39.207Z,15.43
2023-05-03T18:53:06.337Z,15.43
2023-05-03T18:55:32.936Z,15.40
2023-05-03T18:57:59.611Z,15.33
2023-05-03T19:00:26.409Z,15.29
2023-05-03T19:02:52.986Z,15.27
2023-05-03T19:05:19.540Z,15.23
2023-05-03T19:07:49.188Z,15.17
2023-05-03T19:10:17.054Z,15.13
2023-05-03T19:12:44.327Z,15.10
2023-05-03T19:15:11.941Z,15.08
2023-05-03T19:17:41.667Z,15.04
2023-05-03T19:20:10.137Z,15.03
2023-05-03T19:22:36.834Z,15.00
2023-05-03T19:25:05.146Z,15.01
2023-05-03T19:27:32.109Z,14.92
2023-05-03T19:29:58.752Z,14.90
2023-05-03T19:32:25.371Z,14.88
2023-05-03T19:34:51.909Z,14.85
2023-05-03T19:37:18.573Z,14.80
2023-05-03T19:39:45.656Z,14.63
2023-05-03T19:42:12.280Z,14.57
2023-05-03T19:44:38.916Z,14.53
2023-05-03T19:47:05.548Z,14.54
2023-05-03T19:49:32.594Z,14.50
2023-05-03T19:51:59.257Z,14.45
2023-05-03T19:54:26.212Z,14.41
2023-05-03T19:56:52.911Z,14.41
2023-05-03T19:59:19.566Z,14.40
2023-05-03T20:01:46.335Z,14.34
2023-05-03T20:04:13.083Z,14.27
2023-05-03T20:06:39.831Z,14.31
2023-05-03T20:09:06.419Z,14.31
2023-05-03T20:11:32.996Z,14.30
2023-05-03T20:13:59.582Z,14.31
2023-05-03T20:16:31.398Z,14.33
2023-05-03T20:18:58.376Z,14.35
2023-05-03T20:21:24.967Z,14.34
2023-05-03T20:23:51.514Z,14.35
2023-05-03T20:26:19.126Z,14.37
2023-05-03T20:28:46.386Z,14.31
2023-05-03T20:31:13.167Z,14.28
2023-05-03T20:33:39.773Z,14.25
2023-05-03T20:36:07.240Z,14.22
2023-05-03T20:38:33.833Z,14.26
2023-05-03T20:41:00.509Z,14.29
2023-05-03T20:43:27.134Z,14.26
2023-05-03T20:45:53.771Z,14.18
2023-05-03T20:48:20.751Z,14.16
2023-05-03T20:50:47.530Z,14.11
2023-05-03T20:53:14.090Z,14.05
2023-05-03T20:55:40.815Z,13.97
2023-05-03T20:58:07.446Z,13.92
2023-05-03T21:00:34.079Z,13.88
2023-05-03T21:03:00.896Z,13.83
2023-05-03T21:05:28.939Z,13.84
2023-05-03T21:07:56.617Z,13.84
2023-05-03T21:10:23.413Z,13.85
2023-05-03T21:12:49.993Z,13.83
2023-05-03T21:15:16.597Z,13.83
2023-05-03T21:17:43.545Z,13.82
2023-05-03T21:20:10.821Z,13.82
2023-05-03T21:22:37.826Z,13.75
2023-05-03T21:25:05.778Z,13.76
2023-05-03T21:27:32.483Z,13.75
2023-05-03T21:29:59.138Z,13.71
2023-05-03T21:32:25.752Z,13.64
2023-05-03T21:34:53.806Z,13.58
2023-05-03T21:37:20.446Z,13.52
2023-05-03T21:39:58.010Z,13.50
2023-05-03T21:42:32.003Z,13.49
2023-05-03T21:44:59.113Z,13.48
2023-05-03T21:47:27.798Z,13.49
2023-05-03T21:49:54.477Z,13.47
2023-05-03T21:52:21.038Z,13.43
2023-05-03T21:54:47.592Z,13.42
2023-05-03T21:57:14.189Z,13.39
2023-05-03T21:59:40.831Z,13.41
2023-05-03T22:02:07.966Z,13.41
2023-05-03T22:04:34.935Z,13.37
2023-05-03T22:07:01.570Z,13.36
2023-05-03T22:09:28.146Z,13.27
2023-05-03T22:11:54.696Z,13.18
2023-05-03T22:14:21.290Z,13.14
2023-05-03T22:16:47.877Z,13.09
2023-05-03T22:19:14.427Z,13.06
2023-05-03T22:21:40.966Z,13.03
2023-05-03T22:24:08.390Z,13.03
2023-05-03T22:26:35.745Z,13.05
2023-05-03T22:29:02.390Z,13.00
2023-05-03T22:31:30.331Z,12.95
2023-05-03T22:33:57.226Z,12.91
2023-05-03T22:36:23.867Z,12.90
2023-05-03T22:38:55.349Z,12.87
2023-05-03T22:41:22.159Z,12.89
2023-05-03T22:43:48.740Z,12.85
2023-05-03T22:46:15.325Z,12.81
2023-05-03T22:48:41.899Z,12.81
2023-05-03T22:51:09.017Z,12.81
2023-05-03T22:53:35.567Z,12.83
2023-05-03T22:56:04.507Z,12.82
2023-05-03T22:58:31.159Z,12.77
2023-05-03T23:00:58.371Z,12.77
2023-05-03T23:03:25.393Z,12.75
2023-05-03T23:05:53.232Z,12.78
2023-05-03T23:08:20.413Z,12.77
2023-05-03T23:10:47.272Z,12.75
2023-05-03T23:13:14.107Z,12.72
2023-05-03T23:15:40.916Z,12.72
2023-05-03T23:18:07.546Z,12.71
2023-05-03T23:20:34.456Z,12.73
2023-05-03T23:23:01.013Z,12.74
2023-05-03T23:25:27.606Z,12.72
2023-05-03T23:27:54.198Z,12.70
2023-05-03T23:30:21.479Z,12.68
2023-05-03T23:32:48.700Z,12.64
2023-05-03T23:35:15.898Z,12.61
2023-05-03T23:37:42.447Z,12.62
2023-05-03T23:40:09.723Z,12.64
2023-05-03T23:42:36.531Z,12.58
2023-05-03T23:45:03.397Z,12.52
2023-05-03T23:47:30.051Z,12.52
2023-05-03T23:49:56.827Z,12.45
2023-05-03T23:52:23.468Z,12.46
2023-05-03T23:54:50.212Z,12.49
2023-05-03T23:57:16.876Z,12.52
2023-05-03T23:59:43.411Z,12.52
